PWSweather.com
Personal Weather Stations
Station Observations
WXGLH1124
Southern Oaks, Indianapolis, IN 46217

Southern OaksIndianapolis, IN 46217

Lat: 39.65113, Lon: -86.16866

Elevation: 720

Station Type: Vantage Pro2

High Low Average
Temperature 20.9°F-6.2°C 9.6°F-12.4°C 14.7°F-9.6°C
Dew Point 17.7°F-7.9°C -0.8°F-18.2°C 6.6°F-14.1°C
Winds 14.0 mph 22.5 kmh Calm Calm 4.0 mph WSW6.4 kmh WSW
Wind Gusts 18.0 mph29.0 kmh -- 8.0 mph12.9 kmh
Humidity 87% 52% 70%
Pressure 30.50 in1032.8 mb 29.92 in1013.2 mb -
Precipitation 0.00 in0.0 mm - -
Hour Temp Dew Point Humidity Winds Wind Gusts Pressure Precip Precip Rate Daily Precip Total
12:00 AM 21.9°F-5.6°C 18.9°F-7.3°C 88% 7.0 mph N11.3 kmh N 17.0 mph27.4 kmh 29.87 in1011.5 mb 0.00 in0.0 mm 0.00 in0.0 mm 0.00 in0.0 mm
12:05 AM 21.8°F-5.7°C 18.8°F-7.3°C 88% 9.0 mph NNE14.5 kmh NNE 14.0 mph22.5 kmh 29.88 in1011.9 mb 0.00 in0.0 mm 0.00 in0.0 mm 0.00 in0.0 mm
12:10 AM 21.6°F-5.8°C 18.6°F-7.4°C 88% 14.0 mph N22.5 kmh N 19.0 mph30.6 kmh 29.88 in1011.9 mb 0.00 in0.0 mm 0.00 in0.0 mm 0.00 in0.0 mm
12:15 AM 21.5°F-5.8°C 18.5°F-7.5°C 88% 12.0 mph NNE19.3 kmh NNE 14.0 mph22.5 kmh 29.89 in1012.2 mb 0.00 in0.0 mm 0.00 in0.0 mm 0.00 in0.0 mm
12:20 AM 21.4°F-5.9°C 18.4°F-7.6°C 88% 8.0 mph N12.9 kmh N 15.0 mph24.1 kmh 29.89 in1012.2 mb 0.00 in0.0 mm 0.00 in0.0 mm 0.00 in0.0 mm
12:25 AM 21.5°F-5.8°C 18.5°F-7.5°C 88% 10.0 mph NNW16.1 kmh NNW 14.0 mph22.5 kmh 29.89 in1012.2 mb 0.00 in0.0 mm 0.00 in0.0 mm 0.00 in0.0 mm
12:30 AM 21.5°F-5.8°C 18.5°F-7.5°C 88% 12.0 mph NNW19.3 kmh NNW 17.0 mph27.4 kmh 29.89 in1012.2 mb 0.00 in0.0 mm 0.00 in0.0 mm 0.00 in0.0 mm
12:35 AM 21.4°F-5.9°C 18.4°F-7.6°C 88% 8.0 mph NNE12.9 kmh NNE 20.0 mph32.2 kmh 29.90 in1012.5 mb 0.00 in0.0 mm 0.00 in0.0 mm 0.00 in0.0 mm
12:40 AM 21.2°F-6.0°C 17.9°F-7.8°C 87% 13.0 mph N20.9 kmh N 21.0 mph33.8 kmh 29.90 in1012.5 mb 0.00 in0.0 mm 0.00 in0.0 mm 0.00 in0.0 mm
12:44 AM 21.1°F-6.1°C 17.8°F-7.9°C 87% 9.0 mph N14.5 kmh N 15.0 mph24.1 kmh 29.91 in1012.9 mb 0.00 in0.0 mm 0.00 in0.0 mm 0.00 in0.0 mm
12:50 AM 21.1°F-6.1°C 17.8°F-7.9°C 87% 10.0 mph NNE16.1 kmh NNE 16.0 mph25.7 kmh 29.91 in1012.9 mb 0.00 in0.0 mm 0.00 in0.0 mm 0.00 in0.0 mm
12:55 AM 21.0°F-6.1°C 17.8°F-7.9°C 87% 4.0 mph NNE6.4 kmh NNE 13.0 mph20.9 kmh 29.91 in1012.9 mb 0.00 in0.0 mm 0.00 in0.0 mm 0.00 in0.0 mm
01:00 AM 20.9°F-6.2°C 17.7°F-7.9°C 87% 5.0 mph NNE8.0 kmh NNE 14.0 mph22.5 kmh 29.92 in1013.2 mb 0.00 in0.0 mm 0.00 in0.0 mm 0.00 in0.0 mm
01:05 AM 20.8°F-6.2°C 17.3°F-8.2°C 86% 8.0 mph NNW12.9 kmh NNW 11.0 mph17.7 kmh 29.92 in1013.2 mb 0.00 in0.0 mm 0.00 in0.0 mm 0.00 in0.0 mm
01:10 AM 20.6°F-6.3°C 17.1°F-8.3°C 86% 11.0 mph N17.7 kmh N 15.0 mph24.1 kmh 29.93 in1013.5 mb 0.00 in0.0 mm 0.00 in0.0 mm 0.00 in0.0 mm
01:15 AM 20.3°F-6.5°C 16.8°F-8.4°C 86% 9.0 mph N14.5 kmh N 13.0 mph20.9 kmh 29.93 in1013.5 mb 0.00 in0.0 mm 0.00 in0.0 mm 0.00 in0.0 mm
01:20 AM 20.2°F-6.6°C 16.7°F-8.5°C 86% 14.0 mph NNE22.5 kmh NNE 16.0 mph25.7 kmh 29.94 in1013.9 mb 0.00 in0.0 mm 0.00 in0.0 mm 0.00 in0.0 mm
01:25 AM 20.0°F-6.7°C 16.5°F-8.6°C 86% 10.0 mph NNW16.1 kmh NNW 15.0 mph24.1 kmh 29.94 in1013.9 mb 0.00 in0.0 mm 0.00 in0.0 mm 0.00 in0.0 mm
01:30 AM 19.9°F-6.7°C 16.1°F-8.8°C 85% 9.0 mph N14.5 kmh N 14.0 mph22.5 kmh 29.95 in1014.2 mb 0.00 in0.0 mm 0.00 in0.0 mm 0.00 in0.0 mm
01:34 AM 19.9°F-6.7°C 16.1°F-8.8°C 85% 11.0 mph NW17.7 kmh NW 11.0 mph17.7 kmh 29.95 in1014.2 mb 0.00 in0.0 mm 0.00 in0.0 mm 0.00 in0.0 mm
01:39 AM 19.8°F-6.8°C 15.8°F-9.0°C 84% 6.0 mph NNW9.7 kmh NNW 14.0 mph22.5 kmh 29.96 in1014.6 mb 0.00 in0.0 mm 0.00 in0.0 mm 0.00 in0.0 mm
01:45 AM 19.6°F-6.9°C 15.6°F-9.1°C 84% 11.0 mph NNW17.7 kmh NNW 14.0 mph22.5 kmh 29.96 in1014.6 mb 0.00 in0.0 mm 0.00 in0.0 mm 0.00 in0.0 mm
01:50 AM 19.4°F-7.0°C 15.4°F-9.2°C 84% 10.0 mph N16.1 kmh N 12.0 mph19.3 kmh 29.97 in1014.9 mb 0.00 in0.0 mm 0.00 in0.0 mm 0.00 in0.0 mm
01:55 AM 19.2°F-7.1°C 15.2°F-9.3°C 84% 8.0 mph NNW12.9 kmh NNW 12.0 mph19.3 kmh 29.97 in1014.9 mb 0.00 in0.0 mm 0.00 in0.0 mm 0.00 in0.0 mm
02:00 AM 19.1°F-7.2°C 14.8°F-9.6°C 83% 10.0 mph N16.1 kmh N 12.0 mph19.3 kmh 29.97 in1014.9 mb 0.00 in0.0 mm 0.00 in0.0 mm 0.00 in0.0 mm
02:05 AM 19.0°F-7.2°C 14.7°F-9.6°C 83% 9.0 mph N14.5 kmh N 11.0 mph17.7 kmh 29.97 in1014.9 mb 0.00 in0.0 mm 0.00 in0.0 mm 0.00 in0.0 mm
02:10 AM 18.9°F-7.3°C 14.6°F-9.7°C 83% 9.0 mph N14.5 kmh N 11.0 mph17.7 kmh 29.97 in1014.9 mb 0.00 in0.0 mm 0.00 in0.0 mm 0.00 in0.0 mm
02:14 AM 18.8°F-7.3°C 14.5°F-9.7°C 83% 11.0 mph NNW17.7 kmh NNW 15.0 mph24.1 kmh 29.98 in1015.2 mb 0.00 in0.0 mm 0.00 in0.0 mm 0.00 in0.0 mm
02:20 AM 18.5°F-7.5°C 14.2°F-9.9°C 83% 12.0 mph N19.3 kmh N 16.0 mph25.7 kmh 29.98 in1015.2 mb 0.00 in0.0 mm 0.00 in0.0 mm 0.00 in0.0 mm
02:25 AM 18.4°F-7.6°C 14.1°F-9.9°C 83% 8.0 mph NW12.9 kmh NW 13.0 mph20.9 kmh 29.98 in1015.2 mb 0.00 in0.0 mm 0.00 in0.0 mm 0.00 in0.0 mm
02:30 AM 18.1°F-7.7°C 13.5°F-10.3°C 82% 5.0 mph NNW8.0 kmh NNW 16.0 mph25.7 kmh 29.98 in1015.2 mb 0.00 in0.0 mm 0.00 in0.0 mm 0.00 in0.0 mm
02:35 AM 17.9°F-7.8°C 13.4°F-10.3°C 82% 8.0 mph N12.9 kmh N 13.0 mph20.9 kmh 29.97 in1014.9 mb 0.00 in0.0 mm 0.00 in0.0 mm 0.00 in0.0 mm
02:40 AM 17.7°F-7.9°C 13.2°F-10.4°C 82% 8.0 mph N12.9 kmh N 12.0 mph19.3 kmh 29.98 in1015.2 mb 0.00 in0.0 mm 0.00 in0.0 mm 0.00 in0.0 mm
02:45 AM 17.5°F-8.1°C 13.0°F-10.6°C 82% 6.0 mph NNW9.7 kmh NNW 13.0 mph20.9 kmh 29.98 in1015.2 mb 0.00 in0.0 mm 0.00 in0.0 mm 0.00 in0.0 mm
02:50 AM 17.4°F-8.1°C 12.6°F-10.8°C 81% 9.0 mph N14.5 kmh N 15.0 mph24.1 kmh 29.98 in1015.2 mb 0.00 in0.0 mm 0.00 in0.0 mm 0.00 in0.0 mm
02:55 AM 17.2°F-8.2°C 12.4°F-10.9°C 81% 12.0 mph NW19.3 kmh NW 12.0 mph19.3 kmh 29.99 in1015.6 mb 0.00 in0.0 mm 0.00 in0.0 mm 0.00 in0.0 mm
03:00 AM 17.1°F-8.3°C 12.3°F-10.9°C 81% 6.0 mph N9.7 kmh N 14.0 mph22.5 kmh 29.99 in1015.6 mb 0.00 in0.0 mm 0.00 in0.0 mm 0.00 in0.0 mm
03:05 AM 17.1°F-8.3°C 12.3°F-10.9°C 81% 12.0 mph N19.3 kmh N 12.0 mph19.3 kmh 29.99 in1015.6 mb 0.00 in0.0 mm 0.00 in0.0 mm 0.00 in0.0 mm
03:10 AM 16.9°F-8.4°C 12.1°F-11.1°C 81% 9.0 mph NNW14.5 kmh NNW 12.0 mph19.3 kmh 29.99 in1015.6 mb 0.00 in0.0 mm 0.00 in0.0 mm 0.00 in0.0 mm
03:14 AM 16.7°F-8.5°C 11.6°F-11.3°C 80% 10.0 mph N16.1 kmh N 14.0 mph22.5 kmh 29.99 in1015.6 mb 0.00 in0.0 mm 0.00 in0.0 mm 0.00 in0.0 mm
03:20 AM 16.6°F-8.6°C 11.5°F-11.4°C 80% 8.0 mph N12.9 kmh N 17.0 mph27.4 kmh 30.00 in1015.9 mb 0.00 in0.0 mm 0.00 in0.0 mm 0.00 in0.0 mm
03:25 AM 16.5°F-8.6°C 11.4°F-11.4°C 80% 11.0 mph N17.7 kmh N 12.0 mph19.3 kmh 29.99 in1015.6 mb 0.00 in0.0 mm 0.00 in0.0 mm 0.00 in0.0 mm
03:30 AM 16.4°F-8.7°C 11.3°F-11.5°C 80% 8.0 mph N12.9 kmh N 12.0 mph19.3 kmh 29.99 in1015.6 mb 0.00 in0.0 mm 0.00 in0.0 mm 0.00 in0.0 mm
03:35 AM 16.3°F-8.7°C 11.2°F-11.6°C 80% 9.0 mph NNW14.5 kmh NNW 14.0 mph22.5 kmh 29.99 in1015.6 mb 0.00 in0.0 mm 0.00 in0.0 mm 0.00 in0.0 mm
03:39 AM 16.3°F-8.7°C 11.2°F-11.6°C 80% 10.0 mph N16.1 kmh N 15.0 mph24.1 kmh 30.00 in1015.9 mb 0.00 in0.0 mm 0.00 in0.0 mm 0.00 in0.0 mm
03:45 AM 16.1°F-8.8°C 11.0°F-11.7°C 80% 5.0 mph N8.0 kmh N 12.0 mph19.3 kmh 30.00 in1015.9 mb 0.00 in0.0 mm 0.00 in0.0 mm 0.00 in0.0 mm
03:50 AM 16.1°F-8.8°C 11.0°F-11.7°C 80% 8.0 mph N12.9 kmh N 12.0 mph19.3 kmh 30.01 in1016.3 mb 0.00 in0.0 mm 0.00 in0.0 mm 0.00 in0.0 mm
03:55 AM 16.0°F-8.9°C 10.9°F-11.7°C 80% 5.0 mph N8.0 kmh N 13.0 mph20.9 kmh 30.01 in1016.3 mb 0.00 in0.0 mm 0.00 in0.0 mm 0.00 in0.0 mm
04:00 AM 15.9°F-8.9°C 10.8°F-11.8°C 80% 10.0 mph NNW16.1 kmh NNW 13.0 mph20.9 kmh 30.02 in1016.6 mb 0.00 in0.0 mm 0.00 in0.0 mm 0.00 in0.0 mm
04:05 AM 15.9°F-8.9°C 10.8°F-11.8°C 80% 8.0 mph NNW12.9 kmh NNW 17.0 mph27.4 kmh 30.02 in1016.6 mb 0.00 in0.0 mm 0.00 in0.0 mm 0.00 in0.0 mm
04:10 AM 15.9°F-8.9°C 10.8°F-11.8°C 80% 8.0 mph NNW12.9 kmh NNW 16.0 mph25.7 kmh 30.02 in1016.6 mb 0.00 in0.0 mm 0.00 in0.0 mm 0.00 in0.0 mm
04:15 AM 15.9°F-8.9°C 10.8°F-11.8°C 80% 9.0 mph NNW14.5 kmh NNW 14.0 mph22.5 kmh 30.03 in1016.9 mb 0.00 in0.0 mm 0.00 in0.0 mm 0.00 in0.0 mm
04:20 AM 15.8°F-9.0°C 10.5°F-11.9°C 79% 7.0 mph NW11.3 kmh NW 16.0 mph25.7 kmh 30.04 in1017.3 mb 0.00 in0.0 mm 0.00 in0.0 mm 0.00 in0.0 mm
04:24 AM 15.7°F-9.1°C 10.4°F-12.0°C 79% 11.0 mph N17.7 kmh N 14.0 mph22.5 kmh 30.04 in1017.3 mb 0.00 in0.0 mm 0.00 in0.0 mm 0.00 in0.0 mm
04:30 AM 15.7°F-9.1°C 10.4°F-12.0°C 79% 8.0 mph NNW12.9 kmh NNW 14.0 mph22.5 kmh 30.05 in1017.6 mb 0.00 in0.0 mm 0.00 in0.0 mm 0.00 in0.0 mm
04:35 AM 15.6°F-9.1°C 10.3°F-12.1°C 79% 11.0 mph NNW17.7 kmh NNW 14.0 mph22.5 kmh 30.06 in1017.9 mb 0.00 in0.0 mm 0.00 in0.0 mm 0.00 in0.0 mm
04:40 AM 15.5°F-9.2°C 10.2°F-12.1°C 79% 10.0 mph N16.1 kmh N 14.0 mph22.5 kmh 30.07 in1018.3 mb 0.00 in0.0 mm 0.00 in0.0 mm 0.00 in0.0 mm
04:45 AM 15.5°F-9.2°C 10.2°F-12.1°C 79% 14.0 mph NNE22.5 kmh NNE 15.0 mph24.1 kmh 30.07 in1018.3 mb 0.00 in0.0 mm 0.00 in0.0 mm 0.00 in0.0 mm
04:50 AM 15.4°F-9.2°C 10.1°F-12.2°C 79% 9.0 mph N14.5 kmh N 14.0 mph22.5 kmh 30.07 in1018.3 mb 0.00 in0.0 mm 0.00 in0.0 mm 0.00 in0.0 mm
04:55 AM 15.4°F-9.2°C 10.1°F-12.2°C 79% 5.0 mph N8.0 kmh N 16.0 mph25.7 kmh 30.08 in1018.6 mb 0.00 in0.0 mm 0.00 in0.0 mm 0.00 in0.0 mm
04:59 AM 15.4°F-9.2°C 10.1°F-12.2°C 79% 9.0 mph N14.5 kmh N 9.0 mph14.5 kmh 30.08 in1018.6 mb 0.00 in0.0 mm 0.00 in0.0 mm 0.00 in0.0 mm
05:05 AM 15.3°F-9.3°C 10.0°F-12.2°C 79% 6.0 mph NW9.7 kmh NW 13.0 mph20.9 kmh 30.08 in1018.6 mb 0.00 in0.0 mm 0.00 in0.0 mm 0.00 in0.0 mm
05:10 AM 15.3°F-9.3°C 10.0°F-12.2°C 79% 9.0 mph NNW14.5 kmh NNW 15.0 mph24.1 kmh 30.09 in1019.0 mb 0.00 in0.0 mm 0.00 in0.0 mm 0.00 in0.0 mm
05:15 AM 15.2°F-9.3°C 9.9°F-12.3°C 79% 11.0 mph N17.7 kmh N 15.0 mph24.1 kmh 30.10 in1019.3 mb 0.00 in0.0 mm 0.00 in0.0 mm 0.00 in0.0 mm
05:20 AM 15.1°F-9.4°C 9.8°F-12.3°C 79% 11.0 mph NNW17.7 kmh NNW 12.0 mph19.3 kmh 30.10 in1019.3 mb 0.00 in0.0 mm 0.00 in0.0 mm 0.00 in0.0 mm
05:25 AM 15.0°F-9.4°C 9.4°F-12.6°C 78% 8.0 mph NW12.9 kmh NW 18.0 mph29.0 kmh 30.10 in1019.3 mb 0.00 in0.0 mm 0.00 in0.0 mm 0.00 in0.0 mm
05:30 AM 14.8°F-9.6°C 9.2°F-12.7°C 78% 10.0 mph N16.1 kmh N 16.0 mph25.7 kmh 30.10 in1019.3 mb 0.00 in0.0 mm 0.00 in0.0 mm 0.00 in0.0 mm
05:34 AM 14.7°F-9.6°C 9.1°F-12.7°C 78% 6.0 mph NNW9.7 kmh NNW 14.0 mph22.5 kmh 30.11 in1019.6 mb 0.00 in0.0 mm 0.00 in0.0 mm 0.00 in0.0 mm
05:39 AM 14.6°F-9.7°C 9.3°F-12.6°C 79% 4.0 mph NNW6.4 kmh NNW 12.0 mph19.3 kmh 30.11 in1019.6 mb 0.00 in0.0 mm 0.00 in0.0 mm 0.00 in0.0 mm
05:45 AM 14.5°F-9.7°C 9.2°F-12.7°C 79% 8.0 mph N12.9 kmh N 11.0 mph17.7 kmh 30.11 in1019.6 mb 0.00 in0.0 mm 0.00 in0.0 mm 0.00 in0.0 mm
05:50 AM 14.4°F-9.8°C 9.1°F-12.7°C 79% 9.0 mph N14.5 kmh N 11.0 mph17.7 kmh 30.11 in1019.6 mb 0.00 in0.0 mm 0.00 in0.0 mm 0.00 in0.0 mm
05:54 AM 14.3°F-9.8°C 9.0°F-12.8°C 79% 9.0 mph NNW14.5 kmh NNW 13.0 mph20.9 kmh 30.11 in1019.6 mb 0.00 in0.0 mm 0.00 in0.0 mm 0.00 in0.0 mm
06:00 AM 14.2°F-9.9°C 8.9°F-12.8°C 79% 8.0 mph N12.9 kmh N 13.0 mph20.9 kmh 30.11 in1019.6 mb 0.00 in0.0 mm 0.00 in0.0 mm 0.00 in0.0 mm
06:05 AM 14.1°F-9.9°C 8.8°F-12.9°C 79% 13.0 mph N20.9 kmh N 13.0 mph20.9 kmh 30.12 in1020.0 mb 0.00 in0.0 mm 0.00 in0.0 mm 0.00 in0.0 mm
06:10 AM 14.0°F-10.0°C 8.7°F-12.9°C 79% 9.0 mph NW14.5 kmh NW 12.0 mph19.3 kmh 30.12 in1020.0 mb 0.00 in0.0 mm 0.00 in0.0 mm 0.00 in0.0 mm
06:15 AM 14.0°F-10.0°C 8.7°F-12.9°C 79% 4.0 mph NNE6.4 kmh NNE 13.0 mph20.9 kmh 30.13 in1020.3 mb 0.00 in0.0 mm 0.00 in0.0 mm 0.00 in0.0 mm
06:19 AM 13.9°F-10.1°C 8.6°F-13.0°C 79% 8.0 mph NNE12.9 kmh NNE 14.0 mph22.5 kmh 30.13 in1020.3 mb 0.00 in0.0 mm 0.00 in0.0 mm 0.00 in0.0 mm
06:25 AM 13.8°F-10.1°C 8.5°F-13.1°C 79% 9.0 mph NNE14.5 kmh NNE 12.0 mph19.3 kmh 30.14 in1020.7 mb 0.00 in0.0 mm 0.00 in0.0 mm 0.00 in0.0 mm
06:30 AM 13.8°F-10.1°C 8.5°F-13.1°C 79% 5.0 mph N8.0 kmh N 11.0 mph17.7 kmh 30.14 in1020.7 mb 0.00 in0.0 mm 0.00 in0.0 mm 0.00 in0.0 mm
06:35 AM 13.7°F-10.2°C 8.4°F-13.1°C 79% 5.0 mph N8.0 kmh N 13.0 mph20.9 kmh 30.15 in1021.0 mb 0.00 in0.0 mm 0.00 in0.0 mm 0.00 in0.0 mm
06:40 AM 13.7°F-10.2°C 8.4°F-13.1°C 79% 8.0 mph N12.9 kmh N 10.0 mph16.1 kmh 30.15 in1021.0 mb 0.00 in0.0 mm 0.00 in0.0 mm 0.00 in0.0 mm
06:45 AM 13.7°F-10.2°C 8.4°F-13.1°C 79% 8.0 mph N12.9 kmh N 8.0 mph12.9 kmh 30.16 in1021.3 mb 0.00 in0.0 mm 0.00 in0.0 mm 0.00 in0.0 mm
06:50 AM 13.7°F-10.2°C 8.4°F-13.1°C 79% 8.0 mph N12.9 kmh N 13.0 mph20.9 kmh 30.16 in1021.3 mb 0.00 in0.0 mm 0.00 in0.0 mm 0.00 in0.0 mm
06:55 AM 13.6°F-10.2°C 8.3°F-13.2°C 79% 9.0 mph NNE14.5 kmh NNE 9.0 mph14.5 kmh 30.16 in1021.3 mb 0.00 in0.0 mm 0.00 in0.0 mm 0.00 in0.0 mm
07:00 AM 13.6°F-10.2°C 8.3°F-13.2°C 79% 12.0 mph N19.3 kmh N 14.0 mph22.5 kmh 30.17 in1021.7 mb 0.00 in0.0 mm 0.00 in0.0 mm 0.00 in0.0 mm
07:05 AM 13.5°F-10.3°C 7.9°F-13.4°C 78% 7.0 mph NNE11.3 kmh NNE 13.0 mph20.9 kmh 30.17 in1021.7 mb 0.00 in0.0 mm 0.00 in0.0 mm 0.00 in0.0 mm
07:10 AM 13.5°F-10.3°C 7.9°F-13.4°C 78% 8.0 mph NW12.9 kmh NW 9.0 mph14.5 kmh 30.17 in1021.7 mb 0.00 in0.0 mm 0.00 in0.0 mm 0.00 in0.0 mm
07:14 AM 13.3°F-10.4°C 7.7°F-13.5°C 78% 5.0 mph N8.0 kmh N 11.0 mph17.7 kmh 30.17 in1021.7 mb 0.00 in0.0 mm 0.00 in0.0 mm 0.00 in0.0 mm
07:20 AM 13.2°F-10.4°C 7.6°F-13.6°C 78% 5.0 mph N8.0 kmh N 11.0 mph17.7 kmh 30.18 in1022.0 mb 0.00 in0.0 mm 0.00 in0.0 mm 0.00 in0.0 mm
07:25 AM 13.0°F-10.6°C 7.4°F-13.7°C 78% 6.0 mph N9.7 kmh N 16.0 mph25.7 kmh 30.18 in1022.0 mb 0.00 in0.0 mm 0.00 in0.0 mm 0.00 in0.0 mm
07:30 AM 13.0°F-10.6°C 7.4°F-13.7°C 78% 3.0 mph N4.8 kmh N 11.0 mph17.7 kmh 30.18 in1022.0 mb 0.00 in0.0 mm 0.00 in0.0 mm 0.00 in0.0 mm
07:35 AM 12.9°F-10.6°C 7.4°F-13.7°C 78% 5.0 mph N8.0 kmh N 11.0 mph17.7 kmh 30.18 in1022.0 mb 0.00 in0.0 mm 0.00 in0.0 mm 0.00 in0.0 mm
07:39 AM 12.8°F-10.7°C 7.3°F-13.7°C 78% 5.0 mph NNW8.0 kmh NNW 9.0 mph14.5 kmh 30.18 in1022.0 mb 0.00 in0.0 mm 0.00 in0.0 mm 0.00 in0.0 mm
07:45 AM 12.7°F-10.7°C 7.2°F-13.8°C 78% 6.0 mph N9.7 kmh N 9.0 mph14.5 kmh 30.19 in1022.4 mb 0.00 in0.0 mm 0.00 in0.0 mm 0.00 in0.0 mm
07:49 AM 12.6°F-10.8°C 7.1°F-13.8°C 78% 4.0 mph N6.4 kmh N 10.0 mph16.1 kmh 30.19 in1022.4 mb 0.00 in0.0 mm 0.00 in0.0 mm 0.00 in0.0 mm
07:55 AM 12.5°F-10.8°C 7.0°F-13.9°C 78% 5.0 mph N8.0 kmh N 10.0 mph16.1 kmh 30.19 in1022.4 mb 0.00 in0.0 mm 0.00 in0.0 mm 0.00 in0.0 mm
08:00 AM 12.4°F-10.9°C 6.9°F-13.9°C 78% 5.0 mph N8.0 kmh N 9.0 mph14.5 kmh 30.19 in1022.4 mb 0.00 in0.0 mm 0.00 in0.0 mm 0.00 in0.0 mm
08:05 AM 12.3°F-10.9°C 6.8°F-14.0°C 78% 4.0 mph NNW6.4 kmh NNW 5.0 mph8.0 kmh 30.19 in1022.4 mb 0.00 in0.0 mm 0.00 in0.0 mm 0.00 in0.0 mm
08:10 AM 12.3°F-10.9°C 6.5°F-14.2°C 77% 8.0 mph N12.9 kmh N 10.0 mph16.1 kmh 30.20 in1022.7 mb 0.00 in0.0 mm 0.00 in0.0 mm 0.00 in0.0 mm
08:15 AM 12.3°F-10.9°C 6.5°F-14.2°C 77% 1.0 mph N1.6 kmh N 5.0 mph8.0 kmh 30.19 in1022.4 mb 0.00 in0.0 mm 0.00 in0.0 mm 0.00 in0.0 mm
08:19 AM 12.2°F-11.0°C 6.4°F-14.2°C 77% 2.0 mph NNW3.2 kmh NNW 5.0 mph8.0 kmh 30.20 in1022.7 mb 0.00 in0.0 mm 0.00 in0.0 mm 0.00 in0.0 mm
08:25 AM 12.2°F-11.0°C 6.4°F-14.2°C 77% 6.0 mph NNW9.7 kmh NNW 6.0 mph9.7 kmh 30.21 in1023.0 mb 0.00 in0.0 mm 0.00 in0.0 mm 0.00 in0.0 mm
08:30 AM 12.2°F-11.0°C 6.1°F-14.4°C 76% 4.0 mph N6.4 kmh N 5.0 mph8.0 kmh 30.21 in1023.0 mb 0.00 in0.0 mm 0.00 in0.0 mm 0.00 in0.0 mm
08:34 AM 12.1°F-11.1°C 6.0°F-14.4°C 76% 4.0 mph N6.4 kmh N 8.0 mph12.9 kmh 30.22 in1023.4 mb 0.00 in0.0 mm 0.00 in0.0 mm 0.00 in0.0 mm
08:40 AM 12.2°F-11.0°C 5.8°F-14.6°C 75% 7.0 mph NNE11.3 kmh NNE 9.0 mph14.5 kmh 30.22 in1023.4 mb 0.00 in0.0 mm 0.00 in0.0 mm 0.00 in0.0 mm
08:45 AM 12.1°F-11.1°C 5.7°F-14.6°C 75% 8.0 mph N12.9 kmh N 8.0 mph12.9 kmh 30.22 in1023.4 mb 0.00 in0.0 mm 0.00 in0.0 mm 0.00 in0.0 mm
08:49 AM 12.0°F-11.1°C 5.6°F-14.7°C 75% 5.0 mph N8.0 kmh N 8.0 mph12.9 kmh 30.23 in1023.7 mb 0.00 in0.0 mm 0.00 in0.0 mm 0.00 in0.0 mm
08:55 AM 11.9°F-11.2°C 5.5°F-14.7°C 75% 6.0 mph N9.7 kmh N 8.0 mph12.9 kmh 30.24 in1024.0 mb 0.00 in0.0 mm 0.00 in0.0 mm 0.00 in0.0 mm
09:00 AM 11.9°F-11.2°C 5.5°F-14.7°C 75% 6.0 mph NNW9.7 kmh NNW 6.0 mph9.7 kmh 30.24 in1024.0 mb 0.00 in0.0 mm 0.00 in0.0 mm 0.00 in0.0 mm
09:05 AM 11.8°F-11.2°C 5.4°F-14.8°C 75% 3.0 mph NNW4.8 kmh NNW 6.0 mph9.7 kmh 30.24 in1024.0 mb 0.00 in0.0 mm 0.00 in0.0 mm 0.00 in0.0 mm
09:10 AM 11.6°F-11.3°C 5.2°F-14.9°C 75% 6.0 mph N9.7 kmh N 9.0 mph14.5 kmh 30.25 in1024.4 mb 0.00 in0.0 mm 0.00 in0.0 mm 0.00 in0.0 mm
09:15 AM 11.6°F-11.3°C 4.6°F-15.2°C 73% 6.0 mph NNW9.7 kmh NNW 11.0 mph17.7 kmh 30.26 in1024.7 mb 0.00 in0.0 mm 0.00 in0.0 mm 0.00 in0.0 mm
09:20 AM 11.5°F-11.4°C 4.5°F-15.3°C 73% 8.0 mph NNW12.9 kmh NNW 9.0 mph14.5 kmh 30.26 in1024.7 mb 0.00 in0.0 mm 0.00 in0.0 mm 0.00 in0.0 mm
09:25 AM 11.4°F-11.4°C 4.7°F-15.2°C 74% 6.0 mph N9.7 kmh N 6.0 mph9.7 kmh 30.26 in1024.7 mb 0.00 in0.0 mm 0.00 in0.0 mm 0.00 in0.0 mm
09:30 AM 11.3°F-11.5°C 4.4°F-15.3°C 73% 7.0 mph NNE11.3 kmh NNE 8.0 mph12.9 kmh 30.26 in1024.7 mb 0.00 in0.0 mm 0.00 in0.0 mm 0.00 in0.0 mm
09:35 AM 11.3°F-11.5°C 4.1°F-15.5°C 72% 2.0 mph N3.2 kmh N 9.0 mph14.5 kmh 30.26 in1024.7 mb 0.00 in0.0 mm 0.00 in0.0 mm 0.00 in0.0 mm
09:40 AM 11.3°F-11.5°C 4.1°F-15.5°C 72% 5.0 mph NNW8.0 kmh NNW 8.0 mph12.9 kmh 30.26 in1024.7 mb 0.00 in0.0 mm 0.00 in0.0 mm 0.00 in0.0 mm
09:45 AM 11.2°F-11.6°C 3.7°F-15.7°C 71% 5.0 mph NW8.0 kmh NW 11.0 mph17.7 kmh 30.27 in1025.1 mb 0.00 in0.0 mm 0.00 in0.0 mm 0.00 in0.0 mm
09:50 AM 11.3°F-11.5°C 3.1°F-16.1°C 69% 4.0 mph N6.4 kmh N 11.0 mph17.7 kmh 30.27 in1025.1 mb 0.00 in0.0 mm 0.00 in0.0 mm 0.00 in0.0 mm
09:55 AM 11.4°F-11.4°C 3.2°F-16.0°C 69% 6.0 mph N9.7 kmh N 9.0 mph14.5 kmh 30.28 in1025.4 mb 0.00 in0.0 mm 0.00 in0.0 mm 0.00 in0.0 mm
10:00 AM 11.4°F-11.4°C 2.6°F-16.3°C 67% 5.0 mph NNW8.0 kmh NNW 9.0 mph14.5 kmh 30.28 in1025.4 mb 0.00 in0.0 mm 0.00 in0.0 mm 0.00 in0.0 mm
10:05 AM 11.4°F-11.4°C 2.3°F-16.5°C 66% 9.0 mph NNW14.5 kmh NNW 12.0 mph19.3 kmh 30.27 in1025.1 mb 0.00 in0.0 mm 0.00 in0.0 mm 0.00 in0.0 mm
10:10 AM 11.5°F-11.4°C 2.0°F-16.7°C 65% 2.0 mph NNW3.2 kmh NNW 11.0 mph17.7 kmh 30.28 in1025.4 mb 0.00 in0.0 mm 0.00 in0.0 mm 0.00 in0.0 mm
10:15 AM 11.6°F-11.3°C 2.1°F-16.6°C 65% 6.0 mph NNW9.7 kmh NNW 9.0 mph14.5 kmh 30.28 in1025.4 mb 0.00 in0.0 mm 0.00 in0.0 mm 0.00 in0.0 mm
10:19 AM 11.7°F-11.3°C 1.6°F-16.9°C 63% 3.0 mph N4.8 kmh N 10.0 mph16.1 kmh 30.28 in1025.4 mb 0.00 in0.0 mm 0.00 in0.0 mm 0.00 in0.0 mm
10:24 AM 11.8°F-11.2°C 1.7°F-16.8°C 63% 6.0 mph N9.7 kmh N 10.0 mph16.1 kmh 30.28 in1025.4 mb 0.00 in0.0 mm 0.00 in0.0 mm 0.00 in0.0 mm
10:30 AM 11.8°F-11.2°C 1.3°F-17.1°C 62% 5.0 mph N8.0 kmh N 8.0 mph12.9 kmh 30.27 in1025.1 mb 0.00 in0.0 mm 0.00 in0.0 mm 0.00 in0.0 mm
10:35 AM 11.8°F-11.2°C 1.0°F-17.2°C 61% 6.0 mph NE9.7 kmh NE 11.0 mph17.7 kmh 30.27 in1025.1 mb 0.00 in0.0 mm 0.00 in0.0 mm 0.00 in0.0 mm
10:40 AM 11.8°F-11.2°C 1.0°F-17.2°C 61% 3.0 mph NW4.8 kmh NW 9.0 mph14.5 kmh 30.27 in1025.1 mb 0.00 in0.0 mm 0.00 in0.0 mm 0.00 in0.0 mm
10:45 AM 11.8°F-11.2°C 0.6°F-17.4°C 60% 5.0 mph NNE8.0 kmh NNE 9.0 mph14.5 kmh 30.28 in1025.4 mb 0.00 in0.0 mm 0.00 in0.0 mm 0.00 in0.0 mm
10:50 AM 11.8°F-11.2°C 0.6°F-17.4°C 60% 3.0 mph N4.8 kmh N 8.0 mph12.9 kmh 30.29 in1025.7 mb 0.00 in0.0 mm 0.00 in0.0 mm 0.00 in0.0 mm
10:55 AM 11.9°F-11.2°C 0.0°F-17.8°C 58% 2.0 mph N3.2 kmh N 11.0 mph17.7 kmh 30.29 in1025.7 mb 0.00 in0.0 mm 0.00 in0.0 mm 0.00 in0.0 mm
11:00 AM 12.0°F-11.1°C 0.4°F-17.6°C 59% 6.0 mph NNW9.7 kmh NNW 6.0 mph9.7 kmh 30.30 in1026.1 mb 0.00 in0.0 mm 0.00 in0.0 mm 0.00 in0.0 mm
11:05 AM 12.0°F-11.1°C -0.7°F-18.2°C 56% 5.0 mph NE8.0 kmh NE 10.0 mph16.1 kmh 30.30 in1026.1 mb 0.00 in0.0 mm 0.00 in0.0 mm 0.00 in0.0 mm
11:10 AM 12.2°F-11.0°C -0.5°F-18.1°C 56% 4.0 mph N6.4 kmh N 10.0 mph16.1 kmh 30.30 in1026.1 mb 0.00 in0.0 mm 0.00 in0.0 mm 0.00 in0.0 mm
11:15 AM 12.5°F-10.8°C -0.2°F-17.9°C 56% 9.0 mph N14.5 kmh N 11.0 mph17.7 kmh 30.31 in1026.4 mb 0.00 in0.0 mm 0.00 in0.0 mm 0.00 in0.0 mm
11:20 AM 12.5°F-10.8°C -0.6°F-18.1°C 55% 5.0 mph N8.0 kmh N 11.0 mph17.7 kmh 30.30 in1026.1 mb 0.00 in0.0 mm 0.00 in0.0 mm 0.00 in0.0 mm
11:25 AM 12.6°F-10.8°C -0.5°F-18.1°C 55% 3.0 mph NNE4.8 kmh NNE 6.0 mph9.7 kmh 30.30 in1026.1 mb 0.00 in0.0 mm 0.00 in0.0 mm 0.00 in0.0 mm
11:30 AM 12.7°F-10.7°C -0.4°F-18.0°C 55% 1.0 mph NNE1.6 kmh NNE 5.0 mph8.0 kmh 30.30 in1026.1 mb 0.00 in0.0 mm 0.00 in0.0 mm 0.00 in0.0 mm
11:35 AM 13.1°F-10.5°C 0.4°F-17.6°C 56% 2.0 mph ENE3.2 kmh ENE 8.0 mph12.9 kmh 30.31 in1026.4 mb 0.00 in0.0 mm 0.00 in0.0 mm 0.00 in0.0 mm
11:40 AM 13.2°F-10.4°C -0.3°F-17.9°C 54% 4.0 mph N6.4 kmh N 9.0 mph14.5 kmh 30.31 in1026.4 mb 0.00 in0.0 mm 0.00 in0.0 mm 0.00 in0.0 mm
11:45 AM 13.1°F-10.5°C -0.8°F-18.2°C 53% 8.0 mph N12.9 kmh N 10.0 mph16.1 kmh 30.31 in1026.4 mb 0.00 in0.0 mm 0.00 in0.0 mm 0.00 in0.0 mm
11:50 AM 13.2°F-10.4°C -0.3°F-17.9°C 54% Calm Calm 8.0 mph12.9 kmh 30.31 in1026.4 mb 0.00 in0.0 mm 0.00 in0.0 mm 0.00 in0.0 mm
11:54 AM 13.5°F-10.3°C 0.4°F-17.6°C 55% 5.0 mph NE8.0 kmh NE 10.0 mph16.1 kmh 30.31 in1026.4 mb 0.00 in0.0 mm 0.00 in0.0 mm 0.00 in0.0 mm
12:00 PM 14.0°F-10.0°C 0.8°F-17.3°C 55% 5.0 mph NE8.0 kmh NE 10.0 mph16.1 kmh 30.31 in1026.4 mb 0.00 in0.0 mm 0.00 in0.0 mm 0.00 in0.0 mm
12:05 PM 14.4°F-9.8°C 1.6°F-16.9°C 56% 4.0 mph NE6.4 kmh NE 10.0 mph16.1 kmh 30.31 in1026.4 mb 0.00 in0.0 mm 0.00 in0.0 mm 0.00 in0.0 mm
12:10 PM 14.6°F-9.7°C 1.8°F-16.8°C 56% Calm Calm 4.0 mph6.4 kmh 30.31 in1026.4 mb 0.00 in0.0 mm 0.00 in0.0 mm 0.00 in0.0 mm
12:15 PM 14.8°F-9.6°C 1.6°F-16.9°C 55% 1.0 mph NNE1.6 kmh NNE 7.0 mph11.3 kmh 30.31 in1026.4 mb 0.00 in0.0 mm 0.00 in0.0 mm 0.00 in0.0 mm
12:20 PM 15.0°F-9.4°C 1.4°F-17.0°C 54% 5.0 mph NE8.0 kmh NE 10.0 mph16.1 kmh 30.32 in1026.8 mb 0.00 in0.0 mm 0.00 in0.0 mm 0.00 in0.0 mm
12:24 PM 15.0°F-9.4°C 1.4°F-17.0°C 54% 2.0 mph E3.2 kmh E 9.0 mph14.5 kmh 30.32 in1026.8 mb 0.00 in0.0 mm 0.00 in0.0 mm 0.00 in0.0 mm
12:29 PM 15.0°F-9.4°C 0.6°F-17.4°C 52% 3.0 mph N4.8 kmh N 10.0 mph16.1 kmh 30.32 in1026.8 mb 0.00 in0.0 mm 0.00 in0.0 mm 0.00 in0.0 mm
12:35 PM 14.9°F-9.5°C 0.9°F-17.3°C 53% 5.0 mph NE8.0 kmh NE 12.0 mph19.3 kmh 30.33 in1027.1 mb 0.00 in0.0 mm 0.00 in0.0 mm 0.00 in0.0 mm
12:39 PM 15.0°F-9.4°C 1.0°F-17.2°C 53% 6.0 mph NE9.7 kmh NE 7.0 mph11.3 kmh 30.33 in1027.1 mb 0.00 in0.0 mm 0.00 in0.0 mm 0.00 in0.0 mm
12:45 PM 15.0°F-9.4°C 0.6°F-17.4°C 52% 7.0 mph N11.3 kmh N 9.0 mph14.5 kmh 30.33 in1027.1 mb 0.00 in0.0 mm 0.00 in0.0 mm 0.00 in0.0 mm
12:49 PM 15.1°F-9.4°C 1.1°F-17.2°C 53% 3.0 mph N4.8 kmh N 10.0 mph16.1 kmh 30.33 in1027.1 mb 0.00 in0.0 mm 0.00 in0.0 mm 0.00 in0.0 mm
12:54 PM 15.3°F-9.3°C 1.3°F-17.1°C 53% 6.0 mph NE9.7 kmh NE 10.0 mph16.1 kmh 30.33 in1027.1 mb 0.00 in0.0 mm 0.00 in0.0 mm 0.00 in0.0 mm
01:00 PM 15.3°F-9.3°C 1.7°F-16.8°C 54% 5.0 mph N8.0 kmh N 8.0 mph12.9 kmh 30.33 in1027.1 mb 0.00 in0.0 mm 0.00 in0.0 mm 0.00 in0.0 mm
01:05 PM 15.4°F-9.2°C 1.7°F-16.8°C 54% 5.0 mph N8.0 kmh N 9.0 mph14.5 kmh 30.33 in1027.1 mb 0.00 in0.0 mm 0.00 in0.0 mm 0.00 in0.0 mm
01:09 PM 15.5°F-9.2°C 2.2°F-16.6°C 55% 3.0 mph NE4.8 kmh NE 6.0 mph9.7 kmh 30.33 in1027.1 mb 0.00 in0.0 mm 0.00 in0.0 mm 0.00 in0.0 mm
01:15 PM 15.8°F-9.0°C 2.5°F-16.4°C 55% 3.0 mph NNW4.8 kmh NNW 8.0 mph12.9 kmh 30.33 in1027.1 mb 0.00 in0.0 mm 0.00 in0.0 mm 0.00 in0.0 mm
01:20 PM 15.7°F-9.1°C 2.4°F-16.4°C 55% 5.0 mph N8.0 kmh N 9.0 mph14.5 kmh 30.33 in1027.1 mb 0.00 in0.0 mm 0.00 in0.0 mm 0.00 in0.0 mm
01:25 PM 15.7°F-9.1°C 2.0°F-16.7°C 54% 3.0 mph N4.8 kmh N 7.0 mph11.3 kmh 30.33 in1027.1 mb 0.00 in0.0 mm 0.00 in0.0 mm 0.00 in0.0 mm
01:30 PM 15.9°F-8.9°C 2.6°F-16.3°C 55% 6.0 mph NNE9.7 kmh NNE 12.0 mph19.3 kmh 30.33 in1027.1 mb 0.00 in0.0 mm 0.00 in0.0 mm 0.00 in0.0 mm
01:35 PM 16.0°F-8.9°C 2.7°F-16.3°C 55% 7.0 mph N11.3 kmh N 9.0 mph14.5 kmh 30.32 in1026.8 mb 0.00 in0.0 mm 0.00 in0.0 mm 0.00 in0.0 mm
01:40 PM 16.2°F-8.8°C 2.9°F-16.2°C 55% 5.0 mph NNE8.0 kmh NNE 12.0 mph19.3 kmh 30.32 in1026.8 mb 0.00 in0.0 mm 0.00 in0.0 mm 0.00 in0.0 mm
01:45 PM 16.3°F-8.7°C 3.0°F-16.1°C 55% 2.0 mph N3.2 kmh N 10.0 mph16.1 kmh 30.32 in1026.8 mb 0.00 in0.0 mm 0.00 in0.0 mm 0.00 in0.0 mm
01:50 PM 16.4°F-8.7°C 3.1°F-16.1°C 55% 3.0 mph N4.8 kmh N 8.0 mph12.9 kmh 30.32 in1026.8 mb 0.00 in0.0 mm 0.00 in0.0 mm 0.00 in0.0 mm
01:55 PM 16.6°F-8.6°C 3.3°F-15.9°C 55% 3.0 mph N4.8 kmh N 10.0 mph16.1 kmh 30.32 in1026.8 mb 0.00 in0.0 mm 0.00 in0.0 mm 0.00 in0.0 mm
01:59 PM 16.6°F-8.6°C 3.3°F-15.9°C 55% 4.0 mph ENE6.4 kmh ENE 6.0 mph9.7 kmh 30.32 in1026.8 mb 0.00 in0.0 mm 0.00 in0.0 mm 0.00 in0.0 mm
02:05 PM 16.6°F-8.6°C 3.7°F-15.7°C 56% 1.0 mph N1.6 kmh N 5.0 mph8.0 kmh 30.32 in1026.8 mb 0.00 in0.0 mm 0.00 in0.0 mm 0.00 in0.0 mm
02:10 PM 16.7°F-8.5°C 4.1°F-15.5°C 57% 8.0 mph NE12.9 kmh NE 9.0 mph14.5 kmh 30.32 in1026.8 mb 0.00 in0.0 mm 0.00 in0.0 mm 0.00 in0.0 mm
02:14 PM 16.8°F-8.4°C 4.6°F-15.2°C 58% 8.0 mph N12.9 kmh N 13.0 mph20.9 kmh 30.32 in1026.8 mb 0.00 in0.0 mm 0.00 in0.0 mm 0.00 in0.0 mm
02:20 PM 16.8°F-8.4°C 3.5°F-15.8°C 55% 13.0 mph NE20.9 kmh NE 13.0 mph20.9 kmh 30.32 in1026.8 mb 0.00 in0.0 mm 0.00 in0.0 mm 0.00 in0.0 mm
02:25 PM 16.6°F-8.6°C 3.7°F-15.7°C 56% 6.0 mph N9.7 kmh N 8.0 mph12.9 kmh 30.32 in1026.8 mb 0.00 in0.0 mm 0.00 in0.0 mm 0.00 in0.0 mm
02:30 PM 16.8°F-8.4°C 3.8°F-15.7°C 56% 2.0 mph N3.2 kmh N 10.0 mph16.1 kmh 30.32 in1026.8 mb 0.00 in0.0 mm 0.00 in0.0 mm 0.00 in0.0 mm
02:35 PM 17.0°F-8.3°C 4.4°F-15.3°C 57% 2.0 mph N3.2 kmh N 5.0 mph8.0 kmh 30.32 in1026.8 mb 0.00 in0.0 mm 0.00 in0.0 mm 0.00 in0.0 mm
02:40 PM 17.3°F-8.2°C 5.4°F-14.8°C 59% 2.0 mph N3.2 kmh N 8.0 mph12.9 kmh 30.32 in1026.8 mb 0.00 in0.0 mm 0.00 in0.0 mm 0.00 in0.0 mm
02:45 PM 17.4°F-8.1°C 5.5°F-14.7°C 59% 4.0 mph NNW6.4 kmh NNW 6.0 mph9.7 kmh 30.32 in1026.8 mb 0.00 in0.0 mm 0.00 in0.0 mm 0.00 in0.0 mm
02:49 PM 17.3°F-8.2°C 5.1°F-14.9°C 58% 8.0 mph N12.9 kmh N 8.0 mph12.9 kmh 30.32 in1026.8 mb 0.00 in0.0 mm 0.00 in0.0 mm 0.00 in0.0 mm
02:54 PM 17.2°F-8.2°C 4.6°F-15.2°C 57% 5.0 mph N8.0 kmh N 8.0 mph12.9 kmh 30.32 in1026.8 mb 0.00 in0.0 mm 0.00 in0.0 mm 0.00 in0.0 mm
03:00 PM 17.3°F-8.2°C 3.9°F-15.6°C 55% 3.0 mph NNE4.8 kmh NNE 10.0 mph16.1 kmh 30.32 in1026.8 mb 0.00 in0.0 mm 0.00 in0.0 mm 0.00 in0.0 mm
03:05 PM 17.4°F-8.1°C 4.8°F-15.1°C 57% 6.0 mph N9.7 kmh N 8.0 mph12.9 kmh 30.32 in1026.8 mb 0.00 in0.0 mm 0.00 in0.0 mm 0.00 in0.0 mm
03:10 PM 17.5°F-8.1°C 5.3°F-14.8°C 58% 6.0 mph NNE9.7 kmh NNE 6.0 mph9.7 kmh 30.32 in1026.8 mb 0.00 in0.0 mm 0.00 in0.0 mm 0.00 in0.0 mm
03:14 PM 17.5°F-8.1°C 5.3°F-14.8°C 58% 2.0 mph NNW3.2 kmh NNW 7.0 mph11.3 kmh 30.32 in1026.8 mb 0.00 in0.0 mm 0.00 in0.0 mm 0.00 in0.0 mm
03:20 PM 17.3°F-8.2°C 5.1°F-14.9°C 58% 8.0 mph N12.9 kmh N 8.0 mph12.9 kmh 30.32 in1026.8 mb 0.00 in0.0 mm 0.00 in0.0 mm 0.00 in0.0 mm
03:25 PM 17.5°F-8.1°C 6.0°F-14.4°C 60% 6.0 mph N9.7 kmh N 7.0 mph11.3 kmh 30.32 in1026.8 mb 0.00 in0.0 mm 0.00 in0.0 mm 0.00 in0.0 mm
03:30 PM 17.7°F-7.9°C 5.5°F-14.7°C 58% 2.0 mph NNE3.2 kmh NNE 8.0 mph12.9 kmh 30.33 in1027.1 mb 0.00 in0.0 mm 0.00 in0.0 mm 0.00 in0.0 mm
03:35 PM 17.7°F-7.9°C 5.8°F-14.6°C 59% 4.0 mph NNW6.4 kmh NNW 6.0 mph9.7 kmh 30.33 in1027.1 mb 0.00 in0.0 mm 0.00 in0.0 mm 0.00 in0.0 mm
03:40 PM 17.6°F-8.0°C 5.4°F-14.8°C 58% 4.0 mph N6.4 kmh N 10.0 mph16.1 kmh 30.33 in1027.1 mb 0.00 in0.0 mm 0.00 in0.0 mm 0.00 in0.0 mm
03:45 PM 17.7°F-7.9°C 5.5°F-14.7°C 58% 3.0 mph N4.8 kmh N 8.0 mph12.9 kmh 30.33 in1027.1 mb 0.00 in0.0 mm 0.00 in0.0 mm 0.00 in0.0 mm
03:50 PM 17.7°F-7.9°C 5.5°F-14.7°C 58% 6.0 mph N9.7 kmh N 10.0 mph16.1 kmh 30.33 in1027.1 mb 0.00 in0.0 mm 0.00 in0.0 mm 0.00 in0.0 mm
03:55 PM 17.3°F-8.2°C 4.7°F-15.2°C 57% 4.0 mph NNW6.4 kmh NNW 11.0 mph17.7 kmh 30.34 in1027.4 mb 0.00 in0.0 mm 0.00 in0.0 mm 0.00 in0.0 mm
04:00 PM 17.1°F-8.3°C 4.5°F-15.3°C 57% 4.0 mph NNW6.4 kmh NNW 9.0 mph14.5 kmh 30.34 in1027.4 mb 0.00 in0.0 mm 0.00 in0.0 mm 0.00 in0.0 mm
04:05 PM 17.3°F-8.2°C 5.1°F-14.9°C 58% 4.0 mph N6.4 kmh N 9.0 mph14.5 kmh 30.33 in1027.1 mb 0.00 in0.0 mm 0.00 in0.0 mm 0.00 in0.0 mm
04:10 PM 17.6°F-8.0°C 5.4°F-14.8°C 58% 1.0 mph NNW1.6 kmh NNW 4.0 mph6.4 kmh 30.34 in1027.4 mb 0.00 in0.0 mm 0.00 in0.0 mm 0.00 in0.0 mm
04:15 PM 17.5°F-8.1°C 4.9°F-15.1°C 57% 2.0 mph N3.2 kmh N 9.0 mph14.5 kmh 30.34 in1027.4 mb 0.00 in0.0 mm 0.00 in0.0 mm 0.00 in0.0 mm
04:20 PM 17.7°F-7.9°C 6.2°F-14.3°C 60% 2.0 mph NNW3.2 kmh NNW 4.0 mph6.4 kmh 30.34 in1027.4 mb 0.00 in0.0 mm 0.00 in0.0 mm 0.00 in0.0 mm
04:25 PM 17.8°F-7.9°C 5.9°F-14.5°C 59% 1.0 mph NNW1.6 kmh NNW 5.0 mph8.0 kmh 30.34 in1027.4 mb 0.00 in0.0 mm 0.00 in0.0 mm 0.00 in0.0 mm
04:30 PM 17.9°F-7.8°C 6.4°F-14.2°C 60% 2.0 mph NW3.2 kmh NW 4.0 mph6.4 kmh 30.34 in1027.4 mb 0.00 in0.0 mm 0.00 in0.0 mm 0.00 in0.0 mm
04:35 PM 18.1°F-7.7°C 6.9°F-13.9°C 61% 1.0 mph NW1.6 kmh NW 2.0 mph3.2 kmh 30.35 in1027.8 mb 0.00 in0.0 mm 0.00 in0.0 mm 0.00 in0.0 mm
04:39 PM 18.1°F-7.7°C 6.9°F-13.9°C 61% 2.0 mph NNW3.2 kmh NNW 3.0 mph4.8 kmh 30.35 in1027.8 mb 0.00 in0.0 mm 0.00 in0.0 mm 0.00 in0.0 mm
04:45 PM 18.1°F-7.7°C 7.3°F-13.7°C 62% 2.0 mph NNW3.2 kmh NNW 4.0 mph6.4 kmh 30.35 in1027.8 mb 0.00 in0.0 mm 0.00 in0.0 mm 0.00 in0.0 mm
04:50 PM 18.1°F-7.7°C 6.6°F-14.1°C 60% 6.0 mph NNW9.7 kmh NNW 8.0 mph12.9 kmh 30.35 in1027.8 mb 0.00 in0.0 mm 0.00 in0.0 mm 0.00 in0.0 mm
04:55 PM 18.1°F-7.7°C 6.6°F-14.1°C 60% 3.0 mph NW4.8 kmh NW 5.0 mph8.0 kmh 30.35 in1027.8 mb 0.00 in0.0 mm 0.00 in0.0 mm 0.00 in0.0 mm
04:59 PM 18.1°F-7.7°C 6.6°F-14.1°C 60% 3.0 mph NW4.8 kmh NW 8.0 mph12.9 kmh 30.35 in1027.8 mb 0.00 in0.0 mm 0.00 in0.0 mm 0.00 in0.0 mm
05:05 PM 18.1°F-7.7°C 6.6°F-14.1°C 60% 3.0 mph N4.8 kmh N 5.0 mph8.0 kmh 30.35 in1027.8 mb 0.00 in0.0 mm 0.00 in0.0 mm 0.00 in0.0 mm
05:10 PM 17.8°F-7.9°C 6.3°F-14.3°C 60% 4.0 mph NNW6.4 kmh NNW 8.0 mph12.9 kmh 30.35 in1027.8 mb 0.00 in0.0 mm 0.00 in0.0 mm 0.00 in0.0 mm
05:15 PM 17.6°F-8.0°C 6.1°F-14.4°C 60% 4.0 mph NW6.4 kmh NW 9.0 mph14.5 kmh 30.36 in1028.1 mb 0.00 in0.0 mm 0.00 in0.0 mm 0.00 in0.0 mm
05:20 PM 17.5°F-8.1°C 6.0°F-14.4°C 60% 6.0 mph NNW9.7 kmh NNW 8.0 mph12.9 kmh 30.36 in1028.1 mb 0.00 in0.0 mm 0.00 in0.0 mm 0.00 in0.0 mm
05:24 PM 17.3°F-8.2°C 5.4°F-14.8°C 59% 3.0 mph N4.8 kmh N 8.0 mph12.9 kmh 30.36 in1028.1 mb 0.00 in0.0 mm 0.00 in0.0 mm 0.00 in0.0 mm
05:30 PM 17.5°F-8.1°C 6.0°F-14.4°C 60% 2.0 mph N3.2 kmh N 6.0 mph9.7 kmh 30.36 in1028.1 mb 0.00 in0.0 mm 0.00 in0.0 mm 0.00 in0.0 mm
05:35 PM 17.5°F-8.1°C 6.0°F-14.4°C 60% 3.0 mph N4.8 kmh N 8.0 mph12.9 kmh 30.36 in1028.1 mb 0.00 in0.0 mm 0.00 in0.0 mm 0.00 in0.0 mm
05:40 PM 17.4°F-8.1°C 5.9°F-14.5°C 60% 4.0 mph NW6.4 kmh NW 6.0 mph9.7 kmh 30.36 in1028.1 mb 0.00 in0.0 mm 0.00 in0.0 mm 0.00 in0.0 mm
05:45 PM 17.1°F-8.3°C 5.6°F-14.7°C 60% 4.0 mph NNW6.4 kmh NNW 8.0 mph12.9 kmh 30.37 in1028.4 mb 0.00 in0.0 mm 0.00 in0.0 mm 0.00 in0.0 mm
05:50 PM 17.2°F-8.2°C 6.4°F-14.2°C 62% 1.0 mph NNW1.6 kmh NNW 3.0 mph4.8 kmh 30.37 in1028.4 mb 0.00 in0.0 mm 0.00 in0.0 mm 0.00 in0.0 mm
05:55 PM 17.2°F-8.2°C 6.4°F-14.2°C 62% 4.0 mph N6.4 kmh N 8.0 mph12.9 kmh 30.37 in1028.4 mb 0.00 in0.0 mm 0.00 in0.0 mm 0.00 in0.0 mm
05:59 PM 17.1°F-8.3°C 6.3°F-14.3°C 62% 3.0 mph NW4.8 kmh NW 5.0 mph8.0 kmh 30.38 in1028.8 mb 0.00 in0.0 mm 0.00 in0.0 mm 0.00 in0.0 mm
06:05 PM 16.9°F-8.4°C 5.4°F-14.8°C 60% 4.0 mph N6.4 kmh N 9.0 mph14.5 kmh 30.38 in1028.8 mb 0.00 in0.0 mm 0.00 in0.0 mm 0.00 in0.0 mm
06:10 PM 16.8°F-8.4°C 5.3°F-14.8°C 60% 1.0 mph NNE1.6 kmh NNE 5.0 mph8.0 kmh 30.39 in1029.1 mb 0.00 in0.0 mm 0.00 in0.0 mm 0.00 in0.0 mm
06:15 PM 16.8°F-8.4°C 5.7°F-14.6°C 61% 3.0 mph N4.8 kmh N 4.0 mph6.4 kmh 30.39 in1029.1 mb 0.00 in0.0 mm 0.00 in0.0 mm 0.00 in0.0 mm
06:20 PM 16.8°F-8.4°C 6.1°F-14.4°C 62% 1.0 mph NW1.6 kmh NW 3.0 mph4.8 kmh 30.39 in1029.1 mb 0.00 in0.0 mm 0.00 in0.0 mm 0.00 in0.0 mm
06:25 PM 16.7°F-8.5°C 6.0°F-14.4°C 62% 3.0 mph N4.8 kmh N 4.0 mph6.4 kmh 30.39 in1029.1 mb 0.00 in0.0 mm 0.00 in0.0 mm 0.00 in0.0 mm
06:29 PM 16.7°F-8.5°C 6.0°F-14.4°C 62% 4.0 mph NNW6.4 kmh NNW 6.0 mph9.7 kmh 30.39 in1029.1 mb 0.00 in0.0 mm 0.00 in0.0 mm 0.00 in0.0 mm
06:35 PM 16.5°F-8.6°C 5.8°F-14.6°C 62% 2.0 mph NNW3.2 kmh NNW 3.0 mph4.8 kmh 30.39 in1029.1 mb 0.00 in0.0 mm 0.00 in0.0 mm 0.00 in0.0 mm
06:40 PM 16.4°F-8.7°C 5.7°F-14.6°C 62% 3.0 mph NNW4.8 kmh NNW 5.0 mph8.0 kmh 30.39 in1029.1 mb 0.00 in0.0 mm 0.00 in0.0 mm 0.00 in0.0 mm
06:45 PM 16.3°F-8.7°C 5.6°F-14.7°C 62% Calm Calm 4.0 mph6.4 kmh 30.39 in1029.1 mb 0.00 in0.0 mm 0.00 in0.0 mm 0.00 in0.0 mm
06:50 PM 16.2°F-8.8°C 5.8°F-14.6°C 63% Calm Calm 1.0 mph1.6 kmh 30.40 in1029.5 mb 0.00 in0.0 mm 0.00 in0.0 mm 0.00 in0.0 mm
06:54 PM 16.1°F-8.8°C 5.7°F-14.6°C 63% Calm Calm 3.0 mph4.8 kmh 30.40 in1029.5 mb 0.00 in0.0 mm 0.00 in0.0 mm 0.00 in0.0 mm
07:00 PM 16.0°F-8.9°C 5.6°F-14.7°C 63% Calm Calm 2.0 mph3.2 kmh 30.40 in1029.5 mb 0.00 in0.0 mm 0.00 in0.0 mm 0.00 in0.0 mm
07:05 PM 15.9°F-8.9°C 5.9°F-14.5°C 64% 2.0 mph NW3.2 kmh NW 2.0 mph3.2 kmh 30.40 in1029.5 mb 0.00 in0.0 mm 0.00 in0.0 mm 0.00 in0.0 mm
07:10 PM 15.8°F-9.0°C 5.8°F-14.6°C 64% Calm Calm 2.0 mph3.2 kmh 30.40 in1029.5 mb 0.00 in0.0 mm 0.00 in0.0 mm 0.00 in0.0 mm
07:15 PM 15.8°F-9.0°C 6.1°F-14.4°C 65% Calm Calm 2.0 mph3.2 kmh 30.41 in1029.8 mb 0.00 in0.0 mm 0.00 in0.0 mm 0.00 in0.0 mm
07:19 PM 15.8°F-9.0°C 6.1°F-14.4°C 65% Calm Calm -- 30.41 in1029.8 mb 0.00 in0.0 mm 0.00 in0.0 mm 0.00 in0.0 mm
07:25 PM 15.7°F-9.1°C 6.4°F-14.2°C 66% 1.0 mph NW1.6 kmh NW 2.0 mph3.2 kmh 30.41 in1029.8 mb 0.00 in0.0 mm 0.00 in0.0 mm 0.00 in0.0 mm
07:29 PM 15.6°F-9.1°C 6.3°F-14.3°C 66% 1.0 mph NW1.6 kmh NW 3.0 mph4.8 kmh 30.41 in1029.8 mb 0.00 in0.0 mm 0.00 in0.0 mm 0.00 in0.0 mm
07:35 PM 15.6°F-9.1°C 5.9°F-14.5°C 65% Calm Calm -- 30.42 in1030.1 mb 0.00 in0.0 mm 0.00 in0.0 mm 0.00 in0.0 mm
07:39 PM 15.5°F-9.2°C 6.2°F-14.3°C 66% Calm Calm -- 30.42 in1030.1 mb 0.00 in0.0 mm 0.00 in0.0 mm 0.00 in0.0 mm
07:45 PM 15.4°F-9.2°C 6.1°F-14.4°C 66% Calm Calm -- 30.42 in1030.1 mb 0.00 in0.0 mm 0.00 in0.0 mm 0.00 in0.0 mm
07:50 PM 15.3°F-9.3°C 6.0°F-14.4°C 66% Calm Calm -- 30.42 in1030.1 mb 0.00 in0.0 mm 0.00 in0.0 mm 0.00 in0.0 mm
07:55 PM 15.2°F-9.3°C 6.2°F-14.3°C 67% Calm Calm -- 30.42 in1030.1 mb 0.00 in0.0 mm 0.00 in0.0 mm 0.00 in0.0 mm
08:00 PM 15.2°F-9.3°C 6.2°F-14.3°C 67% Calm Calm -- 30.42 in1030.1 mb 0.00 in0.0 mm 0.00 in0.0 mm 0.00 in0.0 mm
08:05 PM 15.0°F-9.4°C 6.4°F-14.2°C 68% Calm Calm -- 30.42 in1030.1 mb 0.00 in0.0 mm 0.00 in0.0 mm 0.00 in0.0 mm
08:10 PM 14.8°F-9.6°C 5.8°F-14.6°C 67% Calm Calm -- 30.42 in1030.1 mb 0.00 in0.0 mm 0.00 in0.0 mm 0.00 in0.0 mm
08:15 PM 14.6°F-9.7°C 6.0°F-14.4°C 68% Calm Calm -- 30.42 in1030.1 mb 0.00 in0.0 mm 0.00 in0.0 mm 0.00 in0.0 mm
08:20 PM 14.4°F-9.8°C 6.1°F-14.4°C 69% Calm Calm -- 30.42 in1030.1 mb 0.00 in0.0 mm 0.00 in0.0 mm 0.00 in0.0 mm
08:25 PM 14.2°F-9.9°C 6.2°F-14.3°C 70% Calm Calm -- 30.42 in1030.1 mb 0.00 in0.0 mm 0.00 in0.0 mm 0.00 in0.0 mm
08:30 PM 14.0°F-10.0°C 6.4°F-14.2°C 71% Calm Calm -- 30.42 in1030.1 mb 0.00 in0.0 mm 0.00 in0.0 mm 0.00 in0.0 mm
08:35 PM 13.8°F-10.1°C 6.2°F-14.3°C 71% Calm Calm -- 30.42 in1030.1 mb 0.00 in0.0 mm 0.00 in0.0 mm 0.00 in0.0 mm
08:40 PM 13.6°F-10.2°C 6.3°F-14.3°C 72% Calm Calm -- 30.42 in1030.1 mb 0.00 in0.0 mm 0.00 in0.0 mm 0.00 in0.0 mm
08:45 PM 13.4°F-10.3°C 6.1°F-14.4°C 72% Calm Calm -- 30.42 in1030.1 mb 0.00 in0.0 mm 0.00 in0.0 mm 0.00 in0.0 mm
08:50 PM 13.2°F-10.4°C 6.2°F-14.3°C 73% Calm Calm -- 30.42 in1030.1 mb 0.00 in0.0 mm 0.00 in0.0 mm 0.00 in0.0 mm
08:55 PM 13.0°F-10.6°C 6.0°F-14.4°C 73% Calm Calm -- 30.43 in1030.5 mb 0.00 in0.0 mm 0.00 in0.0 mm 0.00 in0.0 mm
09:00 PM 12.9°F-10.6°C 6.2°F-14.3°C 74% Calm Calm -- 30.43 in1030.5 mb 0.00 in0.0 mm 0.00 in0.0 mm 0.00 in0.0 mm
09:05 PM 12.7°F-10.7°C 6.0°F-14.4°C 74% Calm Calm -- 30.43 in1030.5 mb 0.00 in0.0 mm 0.00 in0.0 mm 0.00 in0.0 mm
09:10 PM 12.5°F-10.8°C 6.1°F-14.4°C 75% Calm Calm -- 30.43 in1030.5 mb 0.00 in0.0 mm 0.00 in0.0 mm 0.00 in0.0 mm
09:15 PM 12.4°F-10.9°C 6.0°F-14.4°C 75% Calm Calm -- 30.43 in1030.5 mb 0.00 in0.0 mm 0.00 in0.0 mm 0.00 in0.0 mm
09:19 PM 12.3°F-10.9°C 5.9°F-14.5°C 75% Calm Calm -- 30.43 in1030.5 mb 0.00 in0.0 mm 0.00 in0.0 mm 0.00 in0.0 mm
09:25 PM 12.2°F-11.0°C 5.8°F-14.6°C 75% Calm Calm -- 30.43 in1030.5 mb 0.00 in0.0 mm 0.00 in0.0 mm 0.00 in0.0 mm
09:30 PM 12.0°F-11.1°C 5.9°F-14.5°C 76% Calm Calm -- 30.43 in1030.5 mb 0.00 in0.0 mm 0.00 in0.0 mm 0.00 in0.0 mm
09:35 PM 11.9°F-11.2°C 6.1°F-14.4°C 77% Calm Calm -- 30.44 in1030.8 mb 0.00 in0.0 mm 0.00 in0.0 mm 0.00 in0.0 mm
09:39 PM 11.8°F-11.2°C 6.3°F-14.3°C 78% Calm Calm -- 30.44 in1030.8 mb 0.00 in0.0 mm 0.00 in0.0 mm 0.00 in0.0 mm
09:45 PM 11.7°F-11.3°C 6.2°F-14.3°C 78% Calm Calm -- 30.44 in1030.8 mb 0.00 in0.0 mm 0.00 in0.0 mm 0.00 in0.0 mm
09:49 PM 11.6°F-11.3°C 6.1°F-14.4°C 78% Calm Calm -- 30.44 in1030.8 mb 0.00 in0.0 mm 0.00 in0.0 mm 0.00 in0.0 mm
09:55 PM 11.4°F-11.4°C 5.9°F-14.5°C 78% Calm Calm -- 30.44 in1030.8 mb 0.00 in0.0 mm 0.00 in0.0 mm 0.00 in0.0 mm
09:59 PM 11.3°F-11.5°C 6.1°F-14.4°C 79% Calm Calm -- 30.44 in1030.8 mb 0.00 in0.0 mm 0.00 in0.0 mm 0.00 in0.0 mm
10:05 PM 11.1°F-11.6°C 5.9°F-14.5°C 79% Calm Calm -- 30.44 in1030.8 mb 0.00 in0.0 mm 0.00 in0.0 mm 0.00 in0.0 mm
10:10 PM 11.0°F-11.7°C 5.8°F-14.6°C 79% Calm Calm -- 30.45 in1031.2 mb 0.00 in0.0 mm 0.00 in0.0 mm 0.00 in0.0 mm
10:15 PM 10.8°F-11.8°C 5.9°F-14.5°C 80% Calm Calm -- 30.45 in1031.2 mb 0.00 in0.0 mm 0.00 in0.0 mm 0.00 in0.0 mm
10:20 PM 10.7°F-11.8°C 5.8°F-14.6°C 80% Calm Calm -- 30.45 in1031.2 mb 0.00 in0.0 mm 0.00 in0.0 mm 0.00 in0.0 mm
10:25 PM 10.5°F-11.9°C 5.6°F-14.7°C 80% Calm Calm -- 30.45 in1031.2 mb 0.00 in0.0 mm 0.00 in0.0 mm 0.00 in0.0 mm
10:30 PM 10.4°F-12.0°C 5.7°F-14.6°C 81% Calm Calm -- 30.46 in1031.5 mb 0.00 in0.0 mm 0.00 in0.0 mm 0.00 in0.0 mm
10:35 PM 10.3°F-12.1°C 5.6°F-14.7°C 81% Calm Calm -- 30.45 in1031.2 mb 0.00 in0.0 mm 0.00 in0.0 mm 0.00 in0.0 mm
10:40 PM 10.3°F-12.1°C 5.9°F-14.5°C 82% Calm Calm -- 30.45 in1031.2 mb 0.00 in0.0 mm 0.00 in0.0 mm 0.00 in0.0 mm
10:45 PM 10.2°F-12.1°C 5.8°F-14.6°C 82% Calm Calm -- 30.46 in1031.5 mb 0.00 in0.0 mm 0.00 in0.0 mm 0.00 in0.0 mm
10:50 PM 10.0°F-12.2°C 5.6°F-14.7°C 82% Calm Calm -- 30.46 in1031.5 mb 0.00 in0.0 mm 0.00 in0.0 mm 0.00 in0.0 mm
10:54 PM 9.9°F-12.3°C 5.5°F-14.7°C 82% Calm Calm -- 30.46 in1031.5 mb 0.00 in0.0 mm 0.00 in0.0 mm 0.00 in0.0 mm
10:59 PM 9.9°F-12.3°C 5.5°F-14.7°C 82% Calm Calm -- 30.46 in1031.5 mb 0.00 in0.0 mm 0.00 in0.0 mm 0.00 in0.0 mm
11:05 PM 9.8°F-12.3°C 5.7°F-14.6°C 83% Calm Calm -- 30.47 in1031.8 mb 0.00 in0.0 mm 0.00 in0.0 mm 0.00 in0.0 mm
11:10 PM 9.8°F-12.3°C 5.7°F-14.6°C 83% Calm Calm -- 30.47 in1031.8 mb 0.00 in0.0 mm 0.00 in0.0 mm 0.00 in0.0 mm
11:15 PM 9.7°F-12.4°C 5.6°F-14.7°C 83% Calm Calm -- 30.47 in1031.8 mb 0.00 in0.0 mm 0.00 in0.0 mm 0.00 in0.0 mm
11:20 PM 9.6°F-12.4°C 5.5°F-14.7°C 83% 2.0 mph NW3.2 kmh NW 2.0 mph3.2 kmh 30.47 in1031.8 mb 0.00 in0.0 mm 0.00 in0.0 mm 0.00 in0.0 mm
11:25 PM 9.6°F-12.4°C 5.8°F-14.6°C 84% Calm Calm 1.0 mph1.6 kmh 30.47 in1031.8 mb 0.00 in0.0 mm 0.00 in0.0 mm 0.00 in0.0 mm
11:30 PM 9.8°F-12.3°C 5.9°F-14.5°C 84% Calm Calm 2.0 mph3.2 kmh 30.47 in1031.8 mb 0.00 in0.0 mm 0.00 in0.0 mm 0.00 in0.0 mm
11:35 PM 10.4°F-12.0°C 6.8°F-14.0°C 85% Calm Calm -- 30.47 in1031.8 mb 0.00 in0.0 mm 0.00 in0.0 mm 0.00 in0.0 mm
11:39 PM 10.8°F-11.8°C 6.9°F-13.9°C 84% Calm Calm 3.0 mph4.8 kmh 30.47 in1031.8 mb 0.00 in0.0 mm 0.00 in0.0 mm 0.00 in0.0 mm
11:44 PM 10.9°F-11.7°C 7.0°F-13.9°C 84% Calm Calm 2.0 mph3.2 kmh 30.47 in1031.8 mb 0.00 in0.0 mm 0.00 in0.0 mm 0.00 in0.0 mm
11:49 PM 11.2°F-11.6°C 7.3°F-13.7°C 84% 1.0 mph N1.6 kmh N 2.0 mph3.2 kmh 30.47 in1031.8 mb 0.00 in0.0 mm 0.00 in0.0 mm 0.00 in0.0 mm
11:55 PM 11.5°F-11.4°C 7.6°F-13.6°C 84% 2.0 mph NNW3.2 kmh NNW 4.0 mph6.4 kmh 30.47 in1031.8 mb 0.00 in0.0 mm 0.00 in0.0 mm 0.00 in0.0 mm
11:59 PM 11.8°F-11.2°C 7.6°F-13.6°C 83% 1.0 mph NNW1.6 kmh NNW 2.0 mph3.2 kmh 30.48 in1032.2 mb 0.00 in0.0 mm 0.00 in0.0 mm 0.00 in0.0 mm